createdAt,value
2023-03-10T00:01:59.719Z,99148.06
2023-03-10T00:05:22.796Z,99141.91
2023-03-10T00:08:46.665Z,99138.19
2023-03-10T00:12:10.346Z,99133.78
2023-03-10T00:15:32.832Z,99136.59
2023-03-10T00:18:55.699Z,99136.59
2023-03-10T00:22:20.584Z,99128.41
2023-03-10T00:25:44.631Z,99122.06
2023-03-10T00:29:07.035Z,99114.00
2023-03-10T00:32:30.198Z,99108.41
2023-03-10T00:36:05.350Z,99101.19
2023-03-10T00:39:28.670Z,99100.78
2023-03-10T00:42:52.518Z,99097.75
2023-03-10T00:46:15.101Z,99104.78
2023-03-10T00:49:37.570Z,99098.97
2023-03-10T00:53:00.698Z,99092.88
2023-03-10T00:56:23.746Z,99081.63
2023-03-10T00:59:50.698Z,99084.22
2023-03-10T01:03:13.277Z,99087.44
2023-03-10T01:06:36.745Z,99082.41
2023-03-10T01:10:01.991Z,99078.31
2023-03-10T01:13:24.702Z,99081.91
2023-03-10T01:16:48.588Z,99086.37
2023-03-10T01:20:15.266Z,99079.06
2023-03-10T01:23:37.852Z,99069.06
2023-03-10T01:27:01.006Z,99067.81
2023-03-10T01:30:23.703Z,99058.13
2023-03-10T01:33:48.153Z,99050.88
2023-03-10T01:37:10.636Z,99050.31
2023-03-10T01:40:33.243Z,99044.78
2023-03-10T01:43:56.113Z,99038.69
2023-03-10T01:47:19.272Z,99041.44
2023-03-10T01:50:43.370Z,99034.13
2023-03-10T01:54:09.687Z,99039.72
2023-03-10T01:57:33.668Z,99034.88
2023-03-10T02:00:56.518Z,99025.56
2023-03-10T02:04:23.388Z,99022.22
2023-03-10T02:07:47.380Z,99029.91
2023-03-10T02:11:10.180Z,99015.28
2023-03-10T02:14:33.086Z,99007.72
2023-03-10T02:17:55.509Z,99010.81
2023-03-10T02:21:22.149Z,99004.19
2023-03-10T02:24:48.388Z,99003.44
2023-03-10T02:28:12.582Z,98994.34
2023-03-10T02:31:35.310Z,98991.69
2023-03-10T02:34:58.526Z,98992.44
2023-03-10T02:38:21.669Z,98989.31
2023-03-10T02:41:45.578Z,98989.94
2023-03-10T02:45:11.200Z,98990.91
2023-03-10T02:48:35.372Z,98969.97
2023-03-10T02:51:58.755Z,98975.88
2023-03-10T02:55:22.726Z,98964.50
2023-03-10T02:58:45.805Z,98954.53
2023-03-10T03:02:10.173Z,98967.78
2023-03-10T03:05:32.668Z,98963.72
2023-03-10T03:08:55.760Z,98964.31
2023-03-10T03:12:18.829Z,98962.13
2023-03-10T03:15:42.670Z,98957.28
2023-03-10T03:19:06.640Z,98959.28
2023-03-10T03:22:29.657Z,98957.84
2023-03-10T03:25:52.100Z,98959.44
2023-03-10T03:29:15.658Z,98953.62
2023-03-10T03:32:38.373Z,98943.44
2023-03-10T03:36:02.851Z,98940.78
2023-03-10T03:39:25.642Z,98937.69
2023-03-10T03:42:50.316Z,98931.12
2023-03-10T03:46:12.998Z,98919.88
2023-03-10T03:49:36.549Z,98921.03
2023-03-10T03:53:00.716Z,98909.91
2023-03-10T03:56:23.682Z,98907.34
2023-03-10T03:59:46.142Z,98900.47
2023-03-10T04:03:09.580Z,98893.31
2023-03-10T04:06:32.284Z,98879.72
2023-03-10T04:09:55.983Z,98879.84
2023-03-10T04:13:19.016Z,98872.91
2023-03-10T04:16:41.959Z,98862.62
2023-03-10T04:20:08.740Z,98865.94
2023-03-10T04:23:32.158Z,98861.31
2023-03-10T04:26:56.530Z,98859.38
2023-03-10T04:30:24.107Z,98850.97
2023-03-10T04:33:47.147Z,98847.78
2023-03-10T04:37:09.755Z,98852.44
2023-03-10T04:40:33.408Z,98834.53
2023-03-10T04:43:57.869Z,98844.75
2023-03-10T04:47:20.974Z,98835.41
2023-03-10T04:50:43.523Z,98830.13
2023-03-10T04:54:08.188Z,98818.38
2023-03-10T04:57:30.721Z,98825.75
2023-03-10T05:01:03.113Z,98815.28
2023-03-10T05:04:26.834Z,98821.59
2023-03-10T05:07:50.339Z,98810.41
2023-03-10T05:11:14.514Z,98794.81
2023-03-10T05:14:38.120Z,98798.75
2023-03-10T05:18:02.647Z,98792.00
2023-03-10T05:21:25.716Z,98791.22
2023-03-10T05:24:49.990Z,98792.59
2023-03-10T05:28:13.392Z,98789.72
2023-03-10T05:31:36.207Z,98787.47
2023-03-10T05:35:01.256Z,98789.06
2023-03-10T05:38:24.201Z,98789.56
2023-03-10T05:41:47.330Z,98790.56
2023-03-10T05:45:12.316Z,98787.88
2023-03-10T05:48:35.507Z,98770.69
2023-03-10T05:52:00.029Z,98774.47
2023-03-10T05:55:25.275Z,98768.88
2023-03-10T05:58:48.055Z,98776.38
2023-03-10T06:02:11.823Z,98773.50
2023-03-10T06:05:34.731Z,98775.06
2023-03-10T06:08:58.793Z,98773.91
2023-03-10T06:12:22.034Z,98769.50
2023-03-10T06:15:44.341Z,98769.62
2023-03-10T06:19:07.208Z,98763.81
2023-03-10T06:22:31.387Z,98762.69
2023-03-10T06:25:59.162Z,98758.53
2023-03-10T06:29:21.808Z,98748.38
2023-03-10T06:32:44.417Z,98751.22
2023-03-10T06:36:08.200Z,98753.72
2023-03-10T06:39:31.890Z,98752.88
2023-03-10T06:42:55.585Z,98751.28
2023-03-10T06:46:18.820Z,98753.22
2023-03-10T06:49:41.581Z,98745.59
2023-03-10T06:53:04.432Z,98733.25
2023-03-10T06:56:28.978Z,98739.66
2023-03-10T06:59:53.586Z,98735.72
2023-03-10T07:03:16.113Z,98733.47
2023-03-10T07:06:39.181Z,98735.78
2023-03-10T07:10:01.550Z,98735.25
2023-03-10T07:13:24.233Z,98729.72
2023-03-10T07:16:51.177Z,98725.09
2023-03-10T07:20:14.449Z,98716.41
2023-03-10T07:23:36.916Z,98726.19
2023-03-10T07:27:00.902Z,98720.59
2023-03-10T07:30:25.454Z,98724.31
2023-03-10T07:33:50.487Z,98723.53
2023-03-10T07:37:12.730Z,98721.22
2023-03-10T07:40:35.712Z,98718.66
2023-03-10T07:43:58.276Z,98719.91
2023-03-10T07:47:21.292Z,98712.19
2023-03-10T07:50:45.138Z,98718.16
2023-03-10T07:54:14.551Z,98721.59
2023-03-10T07:57:43.020Z,98724.19
2023-03-10T08:01:07.414Z,98722.53
2023-03-10T08:04:34.165Z,98723.50
2023-03-10T08:07:59.656Z,98716.47
2023-03-10T08:11:27.503Z,98710.88
2023-03-10T08:14:52.228Z,98697.25
2023-03-10T08:18:16.765Z,98690.72
2023-03-10T08:21:55.993Z,98690.47
2023-03-10T08:25:35.887Z,98695.34
2023-03-10T08:28:59.837Z,98687.88
2023-03-10T08:32:23.950Z,98675.59
2023-03-10T08:35:47.548Z,98676.22
2023-03-10T08:39:18.338Z,98660.53
2023-03-10T08:42:52.925Z,98672.03
2023-03-10T08:46:20.721Z,98652.97
2023-03-10T08:49:48.682Z,98651.37
2023-03-10T08:53:13.836Z,98643.78
2023-03-10T09:01:20.651Z,98632.69
2023-03-10T09:08:39.232Z,98626.06
2023-03-10T09:12:10.082Z,98640.25
2023-03-10T09:15:43.737Z,98643.19
2023-03-10T09:19:12.408Z,98624.19
2023-03-10T09:22:39.693Z,98640.28
2023-03-10T09:26:04.221Z,98638.13
2023-03-10T09:29:42.070Z,98637.81
2023-03-10T09:33:08.007Z,98625.88
2023-03-10T09:36:33.561Z,98625.53
2023-03-10T09:39:58.201Z,98616.19
2023-03-10T09:43:25.029Z,98615.59
2023-03-10T09:46:51.690Z,98609.78
2023-03-10T09:50:24.223Z,98618.97
2023-03-10T09:54:03.929Z,98594.09
2023-03-10T09:57:27.569Z,98587.41
2023-03-10T10:00:51.325Z,98585.03
2023-03-10T10:04:17.410Z,98572.12
2023-03-10T10:07:54.505Z,98575.91
2023-03-10T10:11:39.020Z,98575.84
2023-03-10T10:15:08.007Z,98561.78
2023-03-10T10:18:33.550Z,98556.84
2023-03-10T10:22:00.268Z,98554.84
2023-03-10T10:25:23.942Z,98536.34
2023-03-10T10:28:51.034Z,98532.09
2023-03-10T10:32:14.959Z,98533.47
2023-03-10T10:35:39.564Z,98520.72
2023-03-10T10:39:03.257Z,98511.81
2023-03-10T10:42:27.959Z,98521.91
2023-03-10T10:46:08.637Z,98501.31
2023-03-10T10:49:34.501Z,98494.06
2023-03-10T10:53:17.965Z,98486.84
2023-03-10T10:56:43.790Z,98481.91
2023-03-10T11:00:25.742Z,98484.41
2023-03-10T11:03:51.358Z,98478.75
2023-03-10T11:07:18.095Z,98470.38
2023-03-10T11:10:41.673Z,98470.00
2023-03-10T11:14:12.457Z,98458.03
2023-03-10T11:17:40.355Z,98445.16
2023-03-10T11:21:12.778Z,98432.25
2023-03-10T11:24:39.555Z,98430.75
2023-03-10T11:28:21.190Z,98433.28
2023-03-10T11:31:50.877Z,98429.88
2023-03-10T11:35:24.019Z,98427.88
2023-03-10T11:38:53.250Z,98424.94
2023-03-10T11:42:25.221Z,98419.88
2023-03-10T11:46:02.467Z,98418.75
2023-03-10T11:49:27.894Z,98407.25
2023-03-10T11:52:52.132Z,98413.16
2023-03-10T11:56:17.854Z,98386.47
2023-03-10T11:59:48.084Z,98379.31
2023-03-10T12:03:18.664Z,98367.47
2023-03-10T12:06:45.742Z,98369.47
2023-03-10T12:10:15.867Z,98350.28
2023-03-10T12:13:44.051Z,98341.22
2023-03-10T12:17:07.518Z,98330.13
2023-03-10T12:20:31.628Z,98320.66
2023-03-10T12:23:55.583Z,98322.22
2023-03-10T12:27:19.481Z,98322.94
2023-03-10T12:30:47.648Z,98307.09
2023-03-10T12:34:15.534Z,98289.78
2023-03-10T12:37:38.870Z,98285.59
2023-03-10T12:41:02.973Z,98287.50
2023-03-10T12:44:37.499Z,98277.87
2023-03-10T12:48:03.848Z,98274.69
2023-03-10T12:51:26.891Z,98267.78
2023-03-10T12:54:54.066Z,98261.03
2023-03-10T12:58:18.651Z,98256.78
2023-03-10T13:01:55.147Z,98258.38
2023-03-10T13:05:24.840Z,98257.25
2023-03-10T13:08:49.029Z,98242.13
2023-03-10T13:12:18.376Z,98232.66
2023-03-10T13:15:44.818Z,98241.91
2023-03-10T13:19:41.162Z,98223.66
2023-03-10T13:23:28.189Z,98219.72
2023-03-10T13:31:34.212Z,98197.78
2023-03-10T13:34:58.100Z,98205.75
2023-03-10T13:38:24.874Z,98202.47
2023-03-10T13:41:49.582Z,98193.66
2023-03-10T13:45:23.861Z,98183.62
2023-03-10T13:49:15.140Z,98187.25
2023-03-10T13:52:39.909Z,98181.78
2023-03-10T13:56:18.494Z,98174.88
2023-03-10T13:59:46.984Z,98159.53
2023-03-10T14:03:17.649Z,98159.06
2023-03-10T14:06:42.450Z,98167.72
2023-03-10T14:10:21.444Z,98151.69
2023-03-10T14:13:54.980Z,98157.22
2023-03-10T14:17:39.505Z,98154.81
2023-03-10T14:21:25.035Z,98156.22
2023-03-10T14:24:48.978Z,98144.78
2023-03-10T14:31:41.646Z,98142.00
2023-03-10T14:35:11.051Z,98143.56
2023-03-10T14:38:35.056Z,98132.25
2023-03-10T14:46:58.194Z,98149.19
2023-03-10T14:50:24.474Z,98141.47
2023-03-10T14:53:50.835Z,98137.00
2023-03-10T14:57:15.725Z,98136.06
2023-03-10T15:00:39.701Z,98124.94
2023-03-10T15:04:03.961Z,98121.81
2023-03-10T15:07:28.755Z,98115.81
2023-03-10T15:10:52.739Z,98108.38
2023-03-10T15:14:18.154Z,98117.50
2023-03-10T15:17:45.458Z,98123.03
2023-03-10T15:21:10.891Z,98126.94
2023-03-10T15:24:37.491Z,98120.63
2023-03-10T15:28:02.009Z,98122.88
2023-03-10T15:31:26.635Z,98121.88
2023-03-10T15:34:51.299Z,98106.31
2023-03-10T15:38:17.211Z,98110.03
2023-03-10T15:41:43.230Z,98098.09
2023-03-10T15:45:09.449Z,98112.38
2023-03-10T15:48:34.863Z,98103.81
2023-03-10T15:51:59.517Z,98103.03
2023-03-10T15:55:24.111Z,98108.94
2023-03-10T15:58:50.545Z,98104.38
2023-03-10T16:02:16.494Z,98095.28
2023-03-10T16:05:50.394Z,98099.94
2023-03-10T16:09:17.720Z,98104.44
2023-03-10T16:12:43.994Z,98103.97
2023-03-10T16:16:11.367Z,98096.37
2023-03-10T16:19:39.121Z,98081.59
2023-03-10T16:23:04.199Z,98081.16
2023-03-10T16:26:29.953Z,98080.81
2023-03-10T16:29:53.720Z,98080.25
2023-03-10T16:33:20.073Z,98079.13
2023-03-10T16:36:44.568Z,98083.59
2023-03-10T16:40:10.595Z,98084.19
2023-03-10T16:43:37.948Z,98085.69
2023-03-10T16:47:05.438Z,98093.63
2023-03-10T16:50:34.177Z,98099.03
2023-03-10T16:54:00.240Z,98106.69
2023-03-10T16:57:30.572Z,98115.62
2023-03-10T17:00:56.384Z,98123.09
2023-03-10T17:04:28.463Z,98120.94
2023-03-10T17:07:56.346Z,98118.13
2023-03-10T17:11:26.677Z,98131.72
2023-03-10T17:14:51.874Z,98133.37
2023-03-10T17:18:27.128Z,98138.50
2023-03-10T17:21:53.773Z,98145.00
2023-03-10T17:25:22.573Z,98143.69
2023-03-10T17:28:51.672Z,98141.00
2023-03-10T17:32:18.038Z,98144.16
2023-03-10T17:35:42.542Z,98143.78
2023-03-10T17:39:08.481Z,98140.56
2023-03-10T17:42:36.182Z,98142.63
2023-03-10T17:46:03.932Z,98143.66
2023-03-10T17:49:30.429Z,98150.63
2023-03-10T17:52:58.227Z,98156.81
2023-03-10T17:56:24.228Z,98151.78
2023-03-10T17:59:52.079Z,98152.56
2023-03-10T18:03:23.605Z,98156.13
2023-03-10T18:06:49.716Z,98147.00
2023-03-10T18:10:18.155Z,98151.22
2023-03-10T18:18:06.723Z,98157.78
2023-03-10T18:21:34.088Z,98149.37
2023-03-10T18:25:03.424Z,98138.88
2023-03-10T18:28:34.221Z,98144.97
2023-03-10T18:32:04.115Z,98142.09
2023-03-10T18:35:34.110Z,98129.78
2023-03-10T18:39:08.275Z,98133.63
2023-03-10T18:42:35.876Z,98125.47
2023-03-10T18:46:05.172Z,98118.44
2023-03-10T18:49:33.360Z,98129.88
2023-03-10T18:53:03.175Z,98119.09
2023-03-10T18:56:32.590Z,98122.62
2023-03-10T19:00:15.664Z,98128.03
2023-03-10T19:03:49.328Z,98134.78
2023-03-10T19:07:15.647Z,98144.59
2023-03-10T19:10:47.053Z,98145.41
2023-03-10T19:14:15.026Z,98141.19
2023-03-10T19:17:41.349Z,98144.78
2023-03-10T19:21:06.554Z,98145.94
2023-03-10T19:24:40.536Z,98139.22
2023-03-10T19:28:09.764Z,98138.12
2023-03-10T19:31:35.566Z,98138.69
2023-03-10T19:35:03.279Z,98130.19
2023-03-10T19:38:31.818Z,98136.44
2023-03-10T19:42:02.503Z,98142.00
2023-03-10T19:49:09.898Z,98138.88
2023-03-10T19:52:40.117Z,98138.28
2023-03-10T19:56:12.430Z,98138.94
2023-03-10T19:59:43.809Z,98136.31
2023-03-10T20:03:13.511Z,98137.91
2023-03-10T20:06:45.706Z,98139.78
2023-03-10T20:10:22.797Z,98142.78
2023-03-10T20:13:52.552Z,98139.50
2023-03-10T20:17:23.582Z,98148.81
2023-03-10T20:20:51.606Z,98138.00
2023-03-10T20:24:17.197Z,98128.75
2023-03-10T20:27:50.278Z,98133.16
2023-03-10T20:31:19.288Z,98136.44
2023-03-10T20:34:44.865Z,98143.81
2023-03-10T20:38:14.245Z,98146.44
2023-03-10T20:41:45.919Z,98149.22
2023-03-10T20:45:24.976Z,98148.81
2023-03-10T20:48:51.765Z,98144.81
2023-03-10T20:52:20.364Z,98130.94
2023-03-10T20:55:47.845Z,98130.28
2023-03-10T20:59:13.901Z,98112.81
2023-03-10T21:02:39.712Z,98109.09
2023-03-10T21:06:04.739Z,98103.59
2023-03-10T21:09:34.971Z,98102.16
2023-03-10T21:13:02.122Z,98090.06
2023-03-10T21:16:26.118Z,98085.19
2023-03-10T21:19:53.166Z,98077.47
2023-03-10T21:23:18.208Z,98070.59
2023-03-10T21:26:43.068Z,98063.34
2023-03-10T21:30:11.294Z,98063.59
2023-03-10T21:33:35.488Z,98067.88
2023-03-10T21:37:00.293Z,98057.09
2023-03-10T21:40:25.004Z,98050.97
2023-03-10T21:43:50.769Z,98045.00
2023-03-10T21:47:16.865Z,98061.94
2023-03-10T21:50:41.088Z,98068.50
2023-03-10T21:54:05.329Z,98069.81
2023-03-10T21:57:29.261Z,98073.06
2023-03-10T22:00:56.073Z,98069.97
2023-03-10T22:04:22.138Z,98089.63
2023-03-10T22:07:46.132Z,98090.59
2023-03-10T22:11:11.300Z,98100.38
2023-03-10T22:14:35.083Z,98110.97
2023-03-10T22:18:03.118Z,98101.31
2023-03-10T22:21:28.624Z,98106.72
2023-03-10T22:24:54.115Z,98113.31
2023-03-10T22:28:17.898Z,98098.75
2023-03-10T22:31:41.643Z,98090.00
2023-03-10T22:35:10.196Z,98098.69
2023-03-10T22:38:36.191Z,98101.44
2023-03-10T22:42:00.321Z,98108.47
2023-03-10T22:45:25.589Z,98113.63
2023-03-10T22:48:49.420Z,98119.37
2023-03-10T22:52:13.680Z,98112.59
2023-03-10T22:55:44.058Z,98113.38
2023-03-10T22:59:08.983Z,98094.91
2023-03-10T23:02:33.153Z,98098.38
2023-03-10T23:06:14.492Z,98098.22
2023-03-10T23:09:39.444Z,98097.28
2023-03-10T23:13:09.365Z,98094.84
2023-03-10T23:16:36.726Z,98093.13
2023-03-10T23:20:02.247Z,98090.38
2023-03-10T23:23:26.623Z,98094.84
2023-03-10T23:26:50.861Z,98098.00
2023-03-10T23:30:16.575Z,98098.84
2023-03-10T23:33:41.385Z,98099.38
2023-03-10T23:37:05.987Z,98100.22
2023-03-10T23:40:30.804Z,98100.22
2023-03-10T23:43:54.486Z,98111.75
2023-03-10T23:47:20.276Z,98122.53
2023-03-10T23:50:44.366Z,98112.69
2023-03-10T23:54:08.951Z,98122.41
2023-03-10T23:57:33.633Z,98119.56
